createdAt,value
2022-11-07T00:03:10.206Z,98.41
2022-11-07T00:08:41.686Z,98.47
2022-11-07T00:14:13.565Z,98.09
2022-11-07T00:19:45.321Z,98.34
2022-11-07T00:25:16.941Z,98.24
2022-11-07T00:30:53.001Z,98.1
2022-11-07T00:36:24.909Z,98.33
2022-11-07T00:41:56.509Z,98.0
2022-11-07T00:47:28.156Z,98.21
2022-11-07T00:53:00.006Z,97.86
2022-11-07T00:58:31.678Z,98.02
2022-11-07T01:04:04.309Z,97.58
2022-11-07T01:09:35.128Z,98.48
2022-11-07T01:15:06.874Z,98.18
2022-11-07T01:20:38.780Z,97.79
2022-11-07T01:26:10.230Z,98.0
2022-11-07T01:31:46.354Z,97.94
2022-11-07T01:37:18.078Z,98.2
2022-11-07T01:42:50.002Z,98.5
2022-11-07T01:48:21.558Z,98.51
2022-11-07T01:53:53.221Z,97.79
2022-11-07T01:59:24.971Z,98.22
2022-11-07T02:04:56.683Z,98.73
2022-11-07T02:10:28.366Z,98.83
2022-11-07T02:16:00.116Z,98.82
2022-11-07T02:21:31.936Z,97.35
2022-11-07T02:27:03.655Z,97.39
2022-11-07T02:32:41.755Z,97.4
2022-11-07T02:38:13.358Z,97.02
2022-11-07T02:43:45.414Z,95.93
2022-11-07T02:49:16.907Z,94.95
2022-11-07T02:54:48.623Z,94.07
2022-11-07T03:00:20.906Z,94.34
2022-11-07T03:05:52.751Z,94.03
2022-11-07T03:11:23.896Z,93.91
2022-11-07T03:16:55.339Z,93.74
2022-11-07T03:22:27.152Z,93.52
2022-11-07T03:27:59.011Z,94.38
2022-11-07T03:33:35.103Z,94.74
2022-11-07T03:39:06.758Z,94.53
2022-11-07T03:44:38.539Z,94.39
2022-11-07T03:50:10.083Z,93.83
2022-11-07T03:55:41.851Z,94.44
2022-11-07T04:01:13.627Z,94.13
2022-11-07T04:06:45.356Z,94.27
2022-11-07T04:12:17.064Z,94.04
2022-11-07T04:17:48.796Z,94.39
2022-11-07T04:23:20.451Z,94.59
2022-11-07T04:28:52.434Z,93.25
2022-11-07T04:34:28.306Z,93.61
2022-11-07T04:40:00.459Z,93.36
2022-11-07T04:45:31.715Z,94.36
2022-11-07T04:51:03.401Z,94.44
2022-11-07T04:56:35.343Z,93.66
2022-11-07T05:02:07.170Z,93.54
2022-11-07T05:07:38.668Z,92.82
2022-11-07T05:13:10.451Z,92.3
2022-11-07T05:18:42.080Z,93.14
2022-11-07T05:24:13.856Z,93.39
2022-11-07T05:29:45.606Z,93.78
2022-11-07T05:35:21.535Z,94.09
2022-11-07T05:40:53.328Z,95.25
2022-11-07T05:46:25.442Z,94.71
2022-11-07T05:51:56.725Z,95.65
2022-11-07T05:57:28.501Z,95.7
2022-11-07T06:03:00.341Z,96.65
2022-11-07T06:08:31.889Z,96.7
2022-11-07T06:14:03.766Z,97.27
2022-11-07T06:19:35.423Z,97.56
2022-11-07T06:25:07.069Z,97.71
2022-11-07T06:30:38.851Z,97.65
2022-11-07T06:36:15.754Z,98.05
2022-11-07T06:41:46.670Z,98.62
2022-11-07T06:47:18.385Z,98.16
2022-11-07T06:52:50.150Z,98.47
2022-11-07T06:58:21.828Z,98.09
2022-11-07T07:03:53.594Z,97.39
2022-11-07T07:09:25.235Z,97.79
2022-11-07T07:14:56.920Z,97.64
2022-11-07T07:20:28.682Z,97.49
2022-11-07T07:26:00.335Z,97.66
2022-11-07T07:31:32.846Z,97.44
2022-11-07T07:37:10.166Z,97.32
2022-11-07T07:42:41.992Z,97.19
2022-11-07T07:48:13.590Z,96.84
2022-11-07T07:53:45.451Z,96.87
2022-11-07T07:59:17.573Z,95.87
2022-11-07T08:04:49.818Z,95.72
2022-11-07T08:10:44.389Z,96.15
2022-11-07T08:15:53.952Z,95.73
2022-11-07T08:21:25.659Z,95.65
2022-11-07T08:26:57.343Z,95.85
2022-11-07T08:32:29.552Z,95.57
2022-11-07T08:38:05.341Z,94.74
2022-11-07T08:43:37.144Z,94.44
2022-11-07T08:49:08.711Z,94.22
2022-11-07T08:54:40.379Z,93.17
2022-11-07T09:00:12.237Z,92.73
2022-11-07T09:05:44.205Z,92.63
2022-11-07T09:11:15.722Z,91.75
2022-11-07T09:16:47.311Z,91.58
2022-11-07T09:22:19.039Z,91.22
2022-11-07T09:27:50.699Z,90.39
2022-11-07T09:33:22.722Z,89.86
2022-11-07T09:38:58.547Z,89.69
2022-11-07T09:44:37.329Z,89.68
2022-11-07T09:50:02.187Z,88.68
2022-11-07T09:55:33.795Z,88.54
2022-11-07T10:01:05.602Z,88.74
2022-11-07T10:06:37.157Z,88.2
2022-11-07T10:12:08.920Z,88.79
2022-11-07T10:17:40.782Z,87.74
2022-11-07T10:23:12.516Z,87.85
2022-11-07T10:28:44.118Z,87.08
2022-11-07T10:34:15.751Z,87.47
2022-11-07T10:39:51.898Z,86.88
2022-11-07T10:45:23.719Z,87.07
2022-11-07T10:50:55.338Z,86.85
2022-11-07T10:56:27.051Z,86.3
2022-11-07T11:01:58.979Z,85.86
2022-11-07T11:07:30.490Z,84.87
2022-11-07T11:13:02.457Z,84.95
2022-11-07T11:18:34.162Z,84.1
2022-11-07T11:24:05.707Z,83.67
2022-11-07T11:29:40.118Z,84.66
2022-11-07T11:35:09.140Z,84.34
2022-11-07T11:40:45.298Z,84.62
2022-11-07T11:46:17.036Z,84.54
2022-11-07T11:51:48.859Z,85.41
2022-11-07T11:57:20.226Z,84.7
2022-11-07T12:02:52.103Z,84.75
2022-11-07T12:08:23.826Z,83.62
2022-11-07T12:13:55.715Z,83.04
2022-11-07T12:19:27.318Z,81.87
2022-11-07T12:24:58.979Z,81.85
2022-11-07T12:30:30.913Z,81.86
2022-11-07T12:36:02.945Z,81.31
2022-11-07T12:41:38.582Z,81.62
2022-11-07T12:47:10.416Z,82.24
2022-11-07T12:52:42.063Z,81.94
2022-11-07T12:58:13.860Z,81.78
2022-11-07T13:03:45.529Z,80.92
2022-11-07T13:09:17.295Z,80.48
2022-11-07T13:14:49.007Z,80.93
2022-11-07T13:20:20.723Z,80.56
2022-11-07T13:25:52.544Z,81.36
2022-11-07T13:31:24.135Z,82.44
2022-11-07T13:36:55.898Z,81.54
2022-11-07T13:42:32.035Z,82.28
2022-11-07T13:48:03.753Z,82.93
2022-11-07T13:53:35.618Z,81.63
2022-11-07T13:59:07.183Z,81.99
2022-11-07T14:05:14.595Z,80.53
2022-11-07T14:10:10.623Z,80.34
2022-11-07T14:15:42.317Z,80.93
2022-11-07T14:21:14.081Z,80.8
2022-11-07T14:26:45.757Z,80.08
2022-11-07T14:32:17.552Z,80.05
2022-11-07T14:37:49.322Z,80.2
2022-11-07T14:43:25.451Z,79.59
2022-11-07T14:48:57.083Z,80.29
2022-11-07T14:54:29.506Z,79.73
2022-11-07T15:00:00.470Z,79.34
2022-11-07T15:05:32.222Z,80.27
2022-11-07T15:11:04.103Z,79.56
2022-11-07T15:16:35.671Z,80.28
2022-11-07T15:22:07.703Z,80.39
2022-11-07T15:27:39.116Z,79.6
2022-11-07T15:33:11.050Z,79.75
2022-11-07T15:38:42.618Z,80.39
2022-11-07T15:44:18.638Z,79.85
2022-11-07T15:49:50.362Z,79.76
2022-11-07T15:55:22.212Z,79.76
2022-11-07T16:00:53.806Z,80.17
2022-11-07T16:06:26.242Z,81.32
2022-11-07T16:11:57.299Z,80.53
2022-11-07T16:17:29.092Z,80.31
2022-11-07T16:23:00.705Z,80.95
2022-11-07T16:28:32.418Z,81.76
2022-11-07T16:34:04.146Z,81.91
2022-11-07T16:39:36.001Z,82.38
2022-11-07T16:45:11.979Z,82.32
2022-11-07T16:50:44.409Z,81.82
2022-11-07T16:56:16.162Z,82.16
2022-11-07T17:01:48.241Z,82.06
2022-11-07T17:07:19.877Z,81.96
2022-11-07T17:12:51.366Z,83.39
2022-11-07T17:18:23.178Z,83.1
2022-11-07T17:23:55.016Z,83.17
2022-11-07T17:29:26.586Z,83.0
2022-11-07T17:35:32.663Z,84.49
2022-11-07T17:40:30.114Z,84.52
2022-11-07T17:46:10.054Z,84.93
2022-11-07T17:51:42.231Z,85.21
2022-11-07T17:57:13.734Z,85.21
2022-11-07T18:02:45.765Z,85.27
2022-11-07T18:08:50.985Z,84.71
2022-11-07T18:13:48.758Z,84.45
2022-11-07T18:19:20.482Z,84.79
2022-11-07T18:24:52.202Z,84.56
2022-11-07T18:30:24.061Z,85.66
2022-11-07T18:35:55.745Z,85.69
2022-11-07T18:41:27.561Z,85.67
2022-11-07T18:47:03.637Z,85.87
2022-11-07T18:52:35.436Z,85.81
2022-11-07T18:58:06.960Z,85.92
2022-11-07T19:03:38.873Z,86.36
2022-11-07T19:09:10.495Z,85.64
2022-11-07T19:14:42.311Z,85.6
2022-11-07T19:20:14.083Z,85.52
2022-11-07T19:25:45.739Z,85.64
2022-11-07T19:31:17.850Z,86.11
2022-11-07T19:36:49.244Z,87.12
2022-11-07T19:42:21.044Z,86.65
2022-11-07T19:47:57.167Z,86.22
2022-11-07T19:53:28.814Z,86.78
2022-11-07T19:59:00.498Z,86.27
2022-11-07T20:04:32.259Z,86.49
2022-11-07T20:10:04.003Z,86.35
2022-11-07T20:15:35.775Z,87.18
2022-11-07T20:21:07.479Z,87.54
2022-11-07T20:26:39.286Z,88.0
2022-11-07T20:32:11.798Z,88.8
2022-11-07T20:37:42.738Z,88.73
2022-11-07T20:43:15.082Z,88.65
2022-11-07T20:48:50.596Z,88.99
2022-11-07T20:54:22.347Z,88.38
2022-11-07T20:59:54.022Z,88.36
2022-11-07T21:05:25.738Z,88.59
2022-11-07T21:10:57.531Z,88.5
2022-11-07T21:16:29.599Z,88.91
2022-11-07T21:22:00.944Z,89.0
2022-11-07T21:27:32.647Z,89.46
2022-11-07T21:33:04.815Z,89.13
2022-11-07T21:38:36.020Z,89.26
2022-11-07T21:44:07.793Z,89.52
2022-11-07T21:49:46.108Z,89.58
2022-11-07T21:55:17.591Z,89.84
2022-11-07T22:00:49.390Z,88.81
2022-11-07T22:06:21.102Z,88.93
2022-11-07T22:11:52.703Z,88.89
2022-11-07T22:17:24.432Z,88.9
2022-11-07T22:22:56.818Z,88.88
2022-11-07T22:28:27.993Z,89.11
2022-11-07T22:33:59.675Z,89.51
2022-11-07T22:39:31.302Z,89.49
2022-11-07T22:45:03.234Z,89.69
2022-11-07T22:50:39.218Z,89.89
2022-11-07T22:56:11.406Z,89.53
2022-11-07T23:01:42.877Z,88.89
2022-11-07T23:07:14.358Z,88.88
2022-11-07T23:12:46.100Z,90.13
2022-11-07T23:18:18.514Z,90.07
2022-11-07T23:23:49.543Z,89.92
2022-11-07T23:29:21.332Z,89.55
2022-11-07T23:34:53.482Z,89.42
2022-11-07T23:40:24.881Z,90.52
2022-11-07T23:45:56.485Z,90.92
2022-11-07T23:51:32.503Z,91.47
2022-11-07T23:57:04.222Z,91.53
